sensor_id;sensor_type;location;lat;lon;timestamp;temperature;humidity
14409;DHT22;7289;50.706;4.992;2024-02-04T00:00:20;10.70;99.90
14409;DHT22;7289;50.706;4.992;2024-02-04T00:02:49;10.70;99.90
14409;DHT22;7289;50.706;4.992;2024-02-04T00:05:18;10.70;99.90
14409;DHT22;7289;50.706;4.992;2024-02-04T00:07:47;10.70;99.90
14409;DHT22;7289;50.706;4.992;2024-02-04T00:10:15;10.70;99.90
14409;DHT22;7289;50.706;4.992;2024-02-04T00:12:47;10.70;99.90
14409;DHT22;7289;50.706;4.992;2024-02-04T00:15:15;10.70;99.90
14409;DHT22;7289;50.706;4.992;2024-02-04T00:17:44;10.60;99.90
14409;DHT22;7289;50.706;4.992;2024-02-04T00:20:14;10.70;99.90
14409;DHT22;7289;50.706;4.992;2024-02-04T00:22:42;10.70;99.90
14409;DHT22;7289;50.706;4.992;2024-02-04T00:25:11;10.70;99.90
14409;DHT22;7289;50.706;4.992;2024-02-04T00:27:42;10.70;99.90
14409;DHT22;7289;50.706;4.992;2024-02-04T00:30:13;10.80;99.90
14409;DHT22;7289;50.706;4.992;2024-02-04T00:32:41;10.70;99.90
14409;DHT22;7289;50.706;4.992;2024-02-04T00:35:10;10.70;99.90
14409;DHT22;7289;50.706;4.992;2024-02-04T00:37:40;10.70;99.90
14409;DHT22;7289;50.706;4.992;2024-02-04T00:40:10;10.70;99.90
14409;DHT22;7289;50.706;4.992;2024-02-04T00:42:39;10.80;99.90
14409;DHT22;7289;50.706;4.992;2024-02-04T00:45:08;10.80;99.90
14409;DHT22;7289;50.706;4.992;2024-02-04T00:47:38;10.80;99.90
14409;DHT22;7289;50.706;4.992;2024-02-04T00:50:08;10.80;99.90
14409;DHT22;7289;50.706;4.992;2024-02-04T00:52:38;10.80;99.90
14409;DHT22;7289;50.706;4.992;2024-02-04T00:55:08;10.80;99.90
14409;DHT22;7289;50.706;4.992;2024-02-04T00:57:37;10.80;99.90
14409;DHT22;7289;50.706;4.992;2024-02-04T01:00:07;10.80;99.90
14409;DHT22;7289;50.706;4.992;2024-02-04T01:02:38;10.80;99.90
14409;DHT22;7289;50.706;4.992;2024-02-04T01:05:07;10.90;99.90
14409;DHT22;7289;50.706;4.992;2024-02-04T01:07:36;10.80;99.90
14409;DHT22;7289;50.706;4.992;2024-02-04T01:10:07;10.80;99.90
14409;DHT22;7289;50.706;4.992;2024-02-04T01:12:37;10.80;99.90
14409;DHT22;7289;50.706;4.992;2024-02-04T01:15:06;10.80;99.90
14409;DHT22;7289;50.706;4.992;2024-02-04T01:17:35;10.80;99.90
14409;DHT22;7289;50.706;4.992;2024-02-04T01:20:06;10.80;99.90
14409;DHT22;7289;50.706;4.992;2024-02-04T01:22:35;10.80;99.90
14409;DHT22;7289;50.706;4.992;2024-02-04T01:25:05;10.90;99.90
14409;DHT22;7289;50.706;4.992;2024-02-04T01:27:34;10.90;99.90
14409;DHT22;7289;50.706;4.992;2024-02-04T01:30:04;10.90;99.90
14409;DHT22;7289;50.706;4.992;2024-02-04T01:32:35;11.00;99.90
14409;DHT22;7289;50.706;4.992;2024-02-04T01:35:08;10.80;99.90
14409;DHT22;7289;50.706;4.992;2024-02-04T01:37:37;10.90;99.90
14409;DHT22;7289;50.706;4.992;2024-02-04T01:40:07;10.90;99.90
14409;DHT22;7289;50.706;4.992;2024-02-04T01:42:37;10.90;99.90
14409;DHT22;7289;50.706;4.992;2024-02-04T01:45:06;10.90;99.90
14409;DHT22;7289;50.706;4.992;2024-02-04T01:47:35;10.90;99.90
14409;DHT22;7289;50.706;4.992;2024-02-04T01:50:07;10.90;99.90
14409;DHT22;7289;50.706;4.992;2024-02-04T01:52:38;10.80;99.90
14409;DHT22;7289;50.706;4.992;2024-02-04T01:55:08;10.90;99.90
14409;DHT22;7289;50.706;4.992;2024-02-04T01:57:38;10.90;99.90
14409;DHT22;7289;50.706;4.992;2024-02-04T02:00:08;10.80;99.90
14409;DHT22;7289;50.706;4.992;2024-02-04T02:02:39;10.90;99.90
14409;DHT22;7289;50.706;4.992;2024-02-04T02:05:10;10.90;99.90
14409;DHT22;7289;50.706;4.992;2024-02-04T02:07:40;10.90;99.90
14409;DHT22;7289;50.706;4.992;2024-02-04T02:10:12;10.90;99.90
14409;DHT22;7289;50.706;4.992;2024-02-04T02:12:47;10.90;99.90
14409;DHT22;7289;50.706;4.992;2024-02-04T02:15:22;10.90;99.90
14409;DHT22;7289;50.706;4.992;2024-02-04T02:17:55;10.90;99.90
14409;DHT22;7289;50.706;4.992;2024-02-04T02:20:32;10.90;99.90
14409;DHT22;7289;50.706;4.992;2024-02-04T02:23:07;10.90;99.90
14409;DHT22;7289;50.706;4.992;2024-02-04T02:25:38;10.90;99.90
14409;DHT22;7289;50.706;4.992;2024-02-04T02:28:08;11.00;99.90
14409;DHT22;7289;50.706;4.992;2024-02-04T02:30:37;11.00;99.90
14409;DHT22;7289;50.706;4.992;2024-02-04T02:33:06;10.90;99.90
14409;DHT22;7289;50.706;4.992;2024-02-04T02:35:36;10.90;99.90
14409;DHT22;7289;50.706;4.992;2024-02-04T02:38:11;10.90;99.90
14409;DHT22;7289;50.706;4.992;2024-02-04T02:40:47;10.90;99.90
14409;DHT22;7289;50.706;4.992;2024-02-04T02:43:18;10.90;99.90
14409;DHT22;7289;50.706;4.992;2024-02-04T02:45:47;10.90;99.90
14409;DHT22;7289;50.706;4.992;2024-02-04T02:48:16;10.90;99.90
14409;DHT22;7289;50.706;4.992;2024-02-04T02:50:47;10.90;99.90
14409;DHT22;7289;50.706;4.992;2024-02-04T02:53:16;11.00;99.90
14409;DHT22;7289;50.706;4.992;2024-02-04T02:55:49;10.90;99.90
14409;DHT22;7289;50.706;4.992;2024-02-04T02:58:17;10.90;99.90
14409;DHT22;7289;50.706;4.992;2024-02-04T03:00:46;10.90;99.90
14409;DHT22;7289;50.706;4.992;2024-02-04T03:03:15;10.90;99.90
14409;DHT22;7289;50.706;4.992;2024-02-04T03:05:44;10.90;99.90
14409;DHT22;7289;50.706;4.992;2024-02-04T03:08:12;11.00;99.90
14409;DHT22;7289;50.706;4.992;2024-02-04T03:10:41;11.00;99.90
14409;DHT22;7289;50.706;4.992;2024-02-04T03:13:12;11.00;99.90
14409;DHT22;7289;50.706;4.992;2024-02-04T03:15:41;10.90;99.90
14409;DHT22;7289;50.706;4.992;2024-02-04T03:18:10;10.90;99.90
14409;DHT22;7289;50.706;4.992;2024-02-04T03:20:40;11.00;99.90
14409;DHT22;7289;50.706;4.992;2024-02-04T03:23:09;10.90;99.90
14409;DHT22;7289;50.706;4.992;2024-02-04T03:25:37;10.90;99.90
14409;DHT22;7289;50.706;4.992;2024-02-04T03:28:06;11.00;99.90
14409;DHT22;7289;50.706;4.992;2024-02-04T03:30:36;11.00;99.90
14409;DHT22;7289;50.706;4.992;2024-02-04T03:33:05;11.00;99.90
14409;DHT22;7289;50.706;4.992;2024-02-04T03:35:34;11.10;99.90
14409;DHT22;7289;50.706;4.992;2024-02-04T03:38:05;11.10;99.90
14409;DHT22;7289;50.706;4.992;2024-02-04T03:40:33;11.10;99.90
14409;DHT22;7289;50.706;4.992;2024-02-04T03:43:03;11.10;99.90
14409;DHT22;7289;50.706;4.992;2024-02-04T03:45:32;11.00;99.90
14409;DHT22;7289;50.706;4.992;2024-02-04T03:48:02;11.10;99.90
14409;DHT22;7289;50.706;4.992;2024-02-04T03:50:31;11.10;99.90
14409;DHT22;7289;50.706;4.992;2024-02-04T03:53:00;11.10;99.90
14409;DHT22;7289;50.706;4.992;2024-02-04T03:55:29;11.20;99.90
14409;DHT22;7289;50.706;4.992;2024-02-04T03:57:57;11.10;99.90
14409;DHT22;7289;50.706;4.992;2024-02-04T04:00:26;11.20;99.90
14409;DHT22;7289;50.706;4.992;2024-02-04T04:02:55;11.20;99.90
14409;DHT22;7289;50.706;4.992;2024-02-04T04:05:26;11.10;99.90
14409;DHT22;7289;50.706;4.992;2024-02-04T04:07:54;11.10;99.90
14409;DHT22;7289;50.706;4.992;2024-02-04T04:10:23;11.20;99.90
14409;DHT22;7289;50.706;4.992;2024-02-04T04:12:52;11.20;99.90
14409;DHT22;7289;50.706;4.992;2024-02-04T04:15:21;11.10;99.90
14409;DHT22;7289;50.706;4.992;2024-02-04T04:17:50;11.10;99.90
14409;DHT22;7289;50.706;4.992;2024-02-04T04:20:18;11.10;99.90
14409;DHT22;7289;50.706;4.992;2024-02-04T04:22:49;11.00;99.90
14409;DHT22;7289;50.706;4.992;2024-02-04T04:25:18;11.00;99.90
14409;DHT22;7289;50.706;4.992;2024-02-04T04:27:47;11.00;99.90
14409;DHT22;7289;50.706;4.992;2024-02-04T04:30:16;11.00;99.90
14409;DHT22;7289;50.706;4.992;2024-02-04T04:32:44;11.00;99.90
14409;DHT22;7289;50.706;4.992;2024-02-04T04:35:13;11.10;99.90
14409;DHT22;7289;50.706;4.992;2024-02-04T04:37:42;11.10;99.90
14409;DHT22;7289;50.706;4.992;2024-02-04T04:40:13;11.10;99.90
14409;DHT22;7289;50.706;4.992;2024-02-04T04:42:41;11.10;99.90
14409;DHT22;7289;50.706;4.992;2024-02-04T04:45:11;11.10;99.90
14409;DHT22;7289;50.706;4.992;2024-02-04T04:47:40;11.10;99.90
14409;DHT22;7289;50.706;4.992;2024-02-04T04:50:09;11.00;99.90
14409;DHT22;7289;50.706;4.992;2024-02-04T04:52:38;11.10;99.90
14409;DHT22;7289;50.706;4.992;2024-02-04T04:55:08;11.10;99.90
14409;DHT22;7289;50.706;4.992;2024-02-04T04:57:38;11.10;99.90
14409;DHT22;7289;50.706;4.992;2024-02-04T05:00:08;11.10;99.90
14409;DHT22;7289;50.706;4.992;2024-02-04T05:02:39;11.20;99.90
14409;DHT22;7289;50.706;4.992;2024-02-04T05:05:08;11.20;99.90
14409;DHT22;7289;50.706;4.992;2024-02-04T05:07:37;11.10;99.90
14409;DHT22;7289;50.706;4.992;2024-02-04T05:10:07;11.10;99.90
14409;DHT22;7289;50.706;4.992;2024-02-04T05:12:37;11.10;99.90
14409;DHT22;7289;50.706;4.992;2024-02-04T05:15:07;11.10;99.90
14409;DHT22;7289;50.706;4.992;2024-02-04T05:17:35;11.00;99.90
14409;DHT22;7289;50.706;4.992;2024-02-04T05:20:05;11.00;99.90
14409;DHT22;7289;50.706;4.992;2024-02-04T05:22:35;11.10;99.90
14409;DHT22;7289;50.706;4.992;2024-02-04T05:25:04;11.10;99.90
14409;DHT22;7289;50.706;4.992;2024-02-04T05:27:34;11.10;99.90
14409;DHT22;7289;50.706;4.992;2024-02-04T05:30:10;11.10;99.90
14409;DHT22;7289;50.706;4.992;2024-02-04T05:32:39;11.10;99.90
14409;DHT22;7289;50.706;4.992;2024-02-04T05:35:08;11.10;99.90
14409;DHT22;7289;50.706;4.992;2024-02-04T05:37:37;11.10;99.90
14409;DHT22;7289;50.706;4.992;2024-02-04T05:40:06;11.00;99.90
14409;DHT22;7289;50.706;4.992;2024-02-04T05:42:35;11.00;99.90
14409;DHT22;7289;50.706;4.992;2024-02-04T05:45:05;11.00;99.90
14409;DHT22;7289;50.706;4.992;2024-02-04T05:47:35;11.00;99.90
14409;DHT22;7289;50.706;4.992;2024-02-04T05:50:05;11.00;99.90
14409;DHT22;7289;50.706;4.992;2024-02-04T05:52:34;11.10;99.90
14409;DHT22;7289;50.706;4.992;2024-02-04T05:55:03;11.00;99.90
14409;DHT22;7289;50.706;4.992;2024-02-04T05:57:32;11.10;99.90
14409;DHT22;7289;50.706;4.992;2024-02-04T06:00:01;11.00;99.90
14409;DHT22;7289;50.706;4.992;2024-02-04T06:02:37;10.90;99.90
14409;DHT22;7289;50.706;4.992;2024-02-04T06:05:06;11.00;99.90
14409;DHT22;7289;50.706;4.992;2024-02-04T06:07:35;11.00;99.90
14409;DHT22;7289;50.706;4.992;2024-02-04T06:10:04;11.00;99.90
14409;DHT22;7289;50.706;4.992;2024-02-04T06:12:34;11.00;99.90
14409;DHT22;7289;50.706;4.992;2024-02-04T06:15:03;10.90;99.90
14409;DHT22;7289;50.706;4.992;2024-02-04T06:17:32;11.00;99.90
14409;DHT22;7289;50.706;4.992;2024-02-04T06:20:04;10.90;99.90
14409;DHT22;7289;50.706;4.992;2024-02-04T06:22:34;10.90;99.90
14409;DHT22;7289;50.706;4.992;2024-02-04T06:25:03;10.90;99.90
14409;DHT22;7289;50.706;4.992;2024-02-04T06:27:32;10.90;99.90
14409;DHT22;7289;50.706;4.992;2024-02-04T06:30:00;10.90;99.90
14409;DHT22;7289;50.706;4.992;2024-02-04T06:32:30;10.90;99.90
14409;DHT22;7289;50.706;4.992;2024-02-04T06:34:58;10.90;99.90
14409;DHT22;7289;50.706;4.992;2024-02-04T06:37:28;10.90;99.90
14409;DHT22;7289;50.706;4.992;2024-02-04T06:39:57;10.90;99.90
14409;DHT22;7289;50.706;4.992;2024-02-04T06:42:26;10.90;99.90
14409;DHT22;7289;50.706;4.992;2024-02-04T06:44:55;10.90;99.90
14409;DHT22;7289;50.706;4.992;2024-02-04T06:47:24;10.90;99.90
14409;DHT22;7289;50.706;4.992;2024-02-04T06:49:53;10.90;99.90
14409;DHT22;7289;50.706;4.992;2024-02-04T06:52:22;10.90;99.90
14409;DHT22;7289;50.706;4.992;2024-02-04T06:54:52;10.90;99.90
14409;DHT22;7289;50.706;4.992;2024-02-04T06:57:21;10.90;99.90
14409;DHT22;7289;50.706;4.992;2024-02-04T06:59:50;11.00;99.90
14409;DHT22;7289;50.706;4.992;2024-02-04T07:02:18;10.90;99.90
14409;DHT22;7289;50.706;4.992;2024-02-04T07:04:47;10.90;99.90
14409;DHT22;7289;50.706;4.992;2024-02-04T07:07:21;10.90;99.90
14409;DHT22;7289;50.706;4.992;2024-02-04T07:09:49;10.90;99.90
14409;DHT22;7289;50.706;4.992;2024-02-04T07:12:20;10.90;99.90
14409;DHT22;7289;50.706;4.992;2024-02-04T07:14:49;10.90;99.90
14409;DHT22;7289;50.706;4.992;2024-02-04T07:17:18;10.90;99.90
14409;DHT22;7289;50.706;4.992;2024-02-04T07:19:47;10.80;99.90
14409;DHT22;7289;50.706;4.992;2024-02-04T07:22:16;10.80;99.90
14409;DHT22;7289;50.706;4.992;2024-02-04T07:24:45;10.80;99.90
14409;DHT22;7289;50.706;4.992;2024-02-04T07:27:14;10.80;99.90
14409;DHT22;7289;50.706;4.992;2024-02-04T07:29:44;10.80;99.90
14409;DHT22;7289;50.706;4.992;2024-02-04T07:32:14;10.80;99.90
14409;DHT22;7289;50.706;4.992;2024-02-04T07:34:43;10.80;99.90
14409;DHT22;7289;50.706;4.992;2024-02-04T07:37:12;10.80;99.90
14409;DHT22;7289;50.706;4.992;2024-02-04T07:39:42;10.80;99.90
14409;DHT22;7289;50.706;4.992;2024-02-04T07:42:11;10.90;99.90
14409;DHT22;7289;50.706;4.992;2024-02-04T07:44:40;10.90;99.90
14409;DHT22;7289;50.706;4.992;2024-02-04T07:47:10;10.90;99.90
14409;DHT22;7289;50.706;4.992;2024-02-04T07:49:39;10.90;99.90
14409;DHT22;7289;50.706;4.992;2024-02-04T07:52:08;10.90;99.90
14409;DHT22;7289;50.706;4.992;2024-02-04T07:54:37;11.00;99.90
14409;DHT22;7289;50.706;4.992;2024-02-04T07:57:06;10.90;99.90
14409;DHT22;7289;50.706;4.992;2024-02-04T07:59:35;11.00;99.90
14409;DHT22;7289;50.706;4.992;2024-02-04T08:02:04;11.00;99.90
14409;DHT22;7289;50.706;4.992;2024-02-04T08:04:35;11.00;99.90
14409;DHT22;7289;50.706;4.992;2024-02-04T08:07:04;11.00;99.90
14409;DHT22;7289;50.706;4.992;2024-02-04T08:09:33;11.00;99.90
14409;DHT22;7289;50.706;4.992;2024-02-04T08:12:03;11.10;99.90
14409;DHT22;7289;50.706;4.992;2024-02-04T08:14:32;11.10;99.90
14409;DHT22;7289;50.706;4.992;2024-02-04T08:17:01;11.10;99.90
14409;DHT22;7289;50.706;4.992;2024-02-04T08:19:29;11.10;99.90
14409;DHT22;7289;50.706;4.992;2024-02-04T08:22:00;11.10;99.90
14409;DHT22;7289;50.706;4.992;2024-02-04T08:24:29;11.10;99.90
14409;DHT22;7289;50.706;4.992;2024-02-04T08:26:59;11.20;99.90
14409;DHT22;7289;50.706;4.992;2024-02-04T08:29:28;11.20;99.90
14409;DHT22;7289;50.706;4.992;2024-02-04T08:31:56;11.20;99.90
14409;DHT22;7289;50.706;4.992;2024-02-04T08:34:25;11.20;99.90
14409;DHT22;7289;50.706;4.992;2024-02-04T08:36:54;11.20;99.90
14409;DHT22;7289;50.706;4.992;2024-02-04T08:39:25;11.20;99.90
14409;DHT22;7289;50.706;4.992;2024-02-04T08:41:55;11.30;99.90
14409;DHT22;7289;50.706;4.992;2024-02-04T08:44:24;11.30;99.90
14409;DHT22;7289;50.706;4.992;2024-02-04T08:47:06;11.30;99.90
14409;DHT22;7289;50.706;4.992;2024-02-04T08:49:38;11.30;99.90
14409;DHT22;7289;50.706;4.992;2024-02-04T08:52:07;11.40;99.90
14409;DHT22;7289;50.706;4.992;2024-02-04T08:54:37;11.50;99.90
14409;DHT22;7289;50.706;4.992;2024-02-04T08:57:06;11.50;99.90
14409;DHT22;7289;50.706;4.992;2024-02-04T08:59:35;11.50;99.90
14409;DHT22;7289;50.706;4.992;2024-02-04T09:02:04;11.50;99.90
14409;DHT22;7289;50.706;4.992;2024-02-04T09:04:37;11.50;99.90
14409;DHT22;7289;50.706;4.992;2024-02-04T09:07:08;11.50;99.90
14409;DHT22;7289;50.706;4.992;2024-02-04T09:09:39;11.50;99.90
14409;DHT22;7289;50.706;4.992;2024-02-04T09:14:37;11.60;99.90
14409;DHT22;7289;50.706;4.992;2024-02-04T09:17:06;11.70;99.90
14409;DHT22;7289;50.706;4.992;2024-02-04T09:19:35;11.80;99.90
14409;DHT22;7289;50.706;4.992;2024-02-04T09:22:09;11.80;99.90
14409;DHT22;7289;50.706;4.992;2024-02-04T09:24:39;11.80;99.90
14409;DHT22;7289;50.706;4.992;2024-02-04T09:27:08;11.90;99.90
14409;DHT22;7289;50.706;4.992;2024-02-04T09:29:37;11.90;99.90
14409;DHT22;7289;50.706;4.992;2024-02-04T09:32:06;12.00;99.90
14409;DHT22;7289;50.706;4.992;2024-02-04T09:34:35;12.10;99.90
14409;DHT22;7289;50.706;4.992;2024-02-04T09:37:04;12.10;99.90
14409;DHT22;7289;50.706;4.992;2024-02-04T09:39:33;12.10;99.90
14409;DHT22;7289;50.706;4.992;2024-02-04T09:42:04;12.20;99.90
14409;DHT22;7289;50.706;4.992;2024-02-04T09:44:33;12.20;99.90
14409;DHT22;7289;50.706;4.992;2024-02-04T09:47:03;12.20;99.90
14409;DHT22;7289;50.706;4.992;2024-02-04T09:49:32;12.20;99.90
14409;DHT22;7289;50.706;4.992;2024-02-04T09:52:07;12.30;99.90
14409;DHT22;7289;50.706;4.992;2024-02-04T09:54:42;12.20;99.90
14409;DHT22;7289;50.706;4.992;2024-02-04T09:57:14;12.10;99.90
14409;DHT22;7289;50.706;4.992;2024-02-04T09:59:44;12.00;99.90
14409;DHT22;7289;50.706;4.992;2024-02-04T10:02:15;12.00;99.90
14409;DHT22;7289;50.706;4.992;2024-02-04T10:04:48;11.90;99.90
14409;DHT22;7289;50.706;4.992;2024-02-04T10:07:18;11.80;99.90
14409;DHT22;7289;50.706;4.992;2024-02-04T10:09:47;11.80;99.90
14409;DHT22;7289;50.706;4.992;2024-02-04T10:12:18;11.80;99.90
14409;DHT22;7289;50.706;4.992;2024-02-04T10:14:48;11.60;99.90
14409;DHT22;7289;50.706;4.992;2024-02-04T10:17:17;11.60;99.90
14409;DHT22;7289;50.706;4.992;2024-02-04T10:19:48;11.60;99.90
14409;DHT22;7289;50.706;4.992;2024-02-04T10:22:17;11.60;99.90
14409;DHT22;7289;50.706;4.992;2024-02-04T10:24:46;11.70;99.90
14409;DHT22;7289;50.706;4.992;2024-02-04T10:27:15;11.70;99.90
14409;DHT22;7289;50.706;4.992;2024-02-04T10:29:59;11.60;99.90
14409;DHT22;7289;50.706;4.992;2024-02-04T10:32:28;11.80;99.90
14409;DHT22;7289;50.706;4.992;2024-02-04T10:34:58;11.70;99.90
14409;DHT22;7289;50.706;4.992;2024-02-04T10:37:27;11.70;99.90
14409;DHT22;7289;50.706;4.992;2024-02-04T10:39:57;11.80;99.90
14409;DHT22;7289;50.706;4.992;2024-02-04T10:42:27;11.70;99.90
14409;DHT22;7289;50.706;4.992;2024-02-04T10:44:59;11.70;99.90
14409;DHT22;7289;50.706;4.992;2024-02-04T10:47:31;11.70;99.90
14409;DHT22;7289;50.706;4.992;2024-02-04T10:50:02;11.70;99.90
14409;DHT22;7289;50.706;4.992;2024-02-04T10:52:36;11.70;99.90
14409;DHT22;7289;50.706;4.992;2024-02-04T10:55:08;11.70;99.90
14409;DHT22;7289;50.706;4.992;2024-02-04T10:57:38;11.70;99.90
14409;DHT22;7289;50.706;4.992;2024-02-04T11:00:10;11.70;99.90
14409;DHT22;7289;50.706;4.992;2024-02-04T11:02:40;11.80;99.90
14409;DHT22;7289;50.706;4.992;2024-02-04T11:05:14;11.70;99.90
14409;DHT22;7289;50.706;4.992;2024-02-04T11:07:44;11.80;99.90
14409;DHT22;7289;50.706;4.992;2024-02-04T11:10:13;11.90;99.90
14409;DHT22;7289;50.706;4.992;2024-02-04T11:12:44;12.00;99.90
14409;DHT22;7289;50.706;4.992;2024-02-04T11:15:16;12.00;99.90
14409;DHT22;7289;50.706;4.992;2024-02-04T11:18:06;12.00;99.90
14409;DHT22;7289;50.706;4.992;2024-02-04T11:20:54;12.00;99.90
14409;DHT22;7289;50.706;4.992;2024-02-04T11:23:37;12.00;99.90
14409;DHT22;7289;50.706;4.992;2024-02-04T11:26:07;12.00;99.90
14409;DHT22;7289;50.706;4.992;2024-02-04T11:28:37;12.00;99.90
14409;DHT22;7289;50.706;4.992;2024-02-04T11:31:15;12.00;99.90
14409;DHT22;7289;50.706;4.992;2024-02-04T11:33:46;12.00;99.90
14409;DHT22;7289;50.706;4.992;2024-02-04T11:36:15;12.00;99.90
14409;DHT22;7289;50.706;4.992;2024-02-04T11:38:48;12.00;99.90
14409;DHT22;7289;50.706;4.992;2024-02-04T11:41:22;12.00;99.90
14409;DHT22;7289;50.706;4.992;2024-02-04T11:43:53;12.10;99.90
14409;DHT22;7289;50.706;4.992;2024-02-04T11:46:30;12.10;99.90
14409;DHT22;7289;50.706;4.992;2024-02-04T11:49:01;12.00;99.90
14409;DHT22;7289;50.706;4.992;2024-02-04T11:51:30;12.00;99.90
14409;DHT22;7289;50.706;4.992;2024-02-04T11:54:00;12.00;99.90
14409;DHT22;7289;50.706;4.992;2024-02-04T11:56:32;12.00;99.90
14409;DHT22;7289;50.706;4.992;2024-02-04T11:59:03;12.00;99.90
14409;DHT22;7289;50.706;4.992;2024-02-04T12:01:34;12.00;99.90
14409;DHT22;7289;50.706;4.992;2024-02-04T12:04:10;11.90;99.90
14409;DHT22;7289;50.706;4.992;2024-02-04T12:06:40;11.90;99.90
14409;DHT22;7289;50.706;4.992;2024-02-04T12:09:10;11.90;99.90
14409;DHT22;7289;50.706;4.992;2024-02-04T12:11:40;11.90;99.90
14409;DHT22;7289;50.706;4.992;2024-02-04T12:14:10;11.90;99.90
14409;DHT22;7289;50.706;4.992;2024-02-04T12:16:40;11.90;99.90
14409;DHT22;7289;50.706;4.992;2024-02-04T12:19:09;12.00;99.90
14409;DHT22;7289;50.706;4.992;2024-02-04T12:21:38;12.00;99.90
14409;DHT22;7289;50.706;4.992;2024-02-04T12:24:07;12.00;99.90
14409;DHT22;7289;50.706;4.992;2024-02-04T12:26:37;11.90;99.90
14409;DHT22;7289;50.706;4.992;2024-02-04T12:29:07;11.80;99.90
14409;DHT22;7289;50.706;4.992;2024-02-04T12:31:36;11.90;99.90
14409;DHT22;7289;50.706;4.992;2024-02-04T12:34:10;12.00;99.90
14409;DHT22;7289;50.706;4.992;2024-02-04T12:36:39;12.10;99.90
14409;DHT22;7289;50.706;4.992;2024-02-04T12:39:12;12.10;99.90
14409;DHT22;7289;50.706;4.992;2024-02-04T12:41:41;12.20;99.90
14409;DHT22;7289;50.706;4.992;2024-02-04T12:44:10;12.20;99.90
14409;DHT22;7289;50.706;4.992;2024-02-04T12:46:39;12.30;99.90
14409;DHT22;7289;50.706;4.992;2024-02-04T12:49:09;12.30;99.90
14409;DHT22;7289;50.706;4.992;2024-02-04T12:51:38;12.50;99.90
14409;DHT22;7289;50.706;4.992;2024-02-04T12:54:08;12.50;99.90
14409;DHT22;7289;50.706;4.992;2024-02-04T12:56:45;12.40;99.90
14409;DHT22;7289;50.706;4.992;2024-02-04T12:59:24;12.40;99.90
14409;DHT22;7289;50.706;4.992;2024-02-04T13:01:57;12.40;99.90
14409;DHT22;7289;50.706;4.992;2024-02-04T13:04:33;12.50;99.90
14409;DHT22;7289;50.706;4.992;2024-02-04T13:07:06;12.60;99.90
14409;DHT22;7289;50.706;4.992;2024-02-04T13:09:37;12.60;99.90
14409;DHT22;7289;50.706;4.992;2024-02-04T13:12:08;12.50;99.90
14409;DHT22;7289;50.706;4.992;2024-02-04T13:14:37;12.60;99.90
14409;DHT22;7289;50.706;4.992;2024-02-04T13:17:06;12.70;99.90
14409;DHT22;7289;50.706;4.992;2024-02-04T13:19:37;12.70;99.90
14409;DHT22;7289;50.706;4.992;2024-02-04T13:22:07;12.80;99.90
14409;DHT22;7289;50.706;4.992;2024-02-04T13:24:37;13.00;99.90
14409;DHT22;7289;50.706;4.992;2024-02-04T13:27:07;13.00;99.90
14409;DHT22;7289;50.706;4.992;2024-02-04T13:29:36;13.10;99.90
14409;DHT22;7289;50.706;4.992;2024-02-04T13:32:05;13.10;99.90
14409;DHT22;7289;50.706;4.992;2024-02-04T13:34:34;13.10;99.90
14409;DHT22;7289;50.706;4.992;2024-02-04T13:37:04;13.10;99.90
14409;DHT22;7289;50.706;4.992;2024-02-04T13:39:34;13.10;99.90
14409;DHT22;7289;50.706;4.992;2024-02-04T13:42:03;13.10;99.90
14409;DHT22;7289;50.706;4.992;2024-02-04T13:44:32;12.90;99.90
14409;DHT22;7289;50.706;4.992;2024-02-04T13:47:00;12.90;99.90
14409;DHT22;7289;50.706;4.992;2024-02-04T13:49:29;13.00;99.90
14409;DHT22;7289;50.706;4.992;2024-02-04T13:51:58;13.00;99.90
14409;DHT22;7289;50.706;4.992;2024-02-04T13:54:28;13.00;99.90
14409;DHT22;7289;50.706;4.992;2024-02-04T13:56:57;12.90;99.90
14409;DHT22;7289;50.706;4.992;2024-02-04T13:59:26;12.90;99.90
14409;DHT22;7289;50.706;4.992;2024-02-04T14:01:55;12.90;99.90
14409;DHT22;7289;50.706;4.992;2024-02-04T14:04:29;12.90;99.90
14409;DHT22;7289;50.706;4.992;2024-02-04T14:06:58;12.90;99.90
14409;DHT22;7289;50.706;4.992;2024-02-04T14:09:29;12.90;99.90
14409;DHT22;7289;50.706;4.992;2024-02-04T14:11:58;12.90;99.90
14409;DHT22;7289;50.706;4.992;2024-02-04T14:14:26;12.90;99.90
14409;DHT22;7289;50.706;4.992;2024-02-04T14:16:55;12.80;99.90
14409;DHT22;7289;50.706;4.992;2024-02-04T14:19:24;12.70;99.90
14409;DHT22;7289;50.706;4.992;2024-02-04T14:21:53;12.70;99.90
14409;DHT22;7289;50.706;4.992;2024-02-04T14:24:22;12.60;99.90
14409;DHT22;7289;50.706;4.992;2024-02-04T14:26:57;12.60;99.90
14409;DHT22;7289;50.706;4.992;2024-02-04T14:29:26;12.50;99.90
14409;DHT22;7289;50.706;4.992;2024-02-04T14:31:55;12.60;99.90
14409;DHT22;7289;50.706;4.992;2024-02-04T14:34:25;12.50;99.90
14409;DHT22;7289;50.706;4.992;2024-02-04T14:36:55;12.40;99.90
14409;DHT22;7289;50.706;4.992;2024-02-04T14:39:24;12.30;99.90
14409;DHT22;7289;50.706;4.992;2024-02-04T14:41:53;12.40;99.90
14409;DHT22;7289;50.706;4.992;2024-02-04T14:44:23;12.40;99.90
14409;DHT22;7289;50.706;4.992;2024-02-04T14:46:52;12.40;99.90
14409;DHT22;7289;50.706;4.992;2024-02-04T14:49:21;12.40;99.90
14409;DHT22;7289;50.706;4.992;2024-02-04T14:51:49;12.40;99.90
14409;DHT22;7289;50.706;4.992;2024-02-04T14:54:18;12.50;99.90
14409;DHT22;7289;50.706;4.992;2024-02-04T14:56:47;12.50;99.90
14409;DHT22;7289;50.706;4.992;2024-02-04T14:59:18;12.40;99.90
14409;DHT22;7289;50.706;4.992;2024-02-04T15:01:51;12.40;99.90
14409;DHT22;7289;50.706;4.992;2024-02-04T15:04:20;12.40;99.90
14409;DHT22;7289;50.706;4.992;2024-02-04T15:06:49;12.40;99.90
14409;DHT22;7289;50.706;4.992;2024-02-04T15:09:19;12.40;99.90
14409;DHT22;7289;50.706;4.992;2024-02-04T15:11:48;12.30;99.90
14409;DHT22;7289;50.706;4.992;2024-02-04T15:14:18;12.30;99.90
14409;DHT22;7289;50.706;4.992;2024-02-04T15:16:47;12.20;99.90
14409;DHT22;7289;50.706;4.992;2024-02-04T15:19:18;12.10;99.90
14409;DHT22;7289;50.706;4.992;2024-02-04T15:21:47;12.10;99.90
14409;DHT22;7289;50.706;4.992;2024-02-04T15:24:17;12.00;99.90
14409;DHT22;7289;50.706;4.992;2024-02-04T15:26:48;12.00;99.90
14409;DHT22;7289;50.706;4.992;2024-02-04T15:29:18;12.00;99.90
14409;DHT22;7289;50.706;4.992;2024-02-04T15:31:49;12.00;99.90
14409;DHT22;7289;50.706;4.992;2024-02-04T15:34:20;11.90;99.90
14409;DHT22;7289;50.706;4.992;2024-02-04T15:36:49;11.90;99.90
14409;DHT22;7289;50.706;4.992;2024-02-04T15:39:18;11.90;99.90
14409;DHT22;7289;50.706;4.992;2024-02-04T15:41:48;11.90;99.90
14409;DHT22;7289;50.706;4.992;2024-02-04T15:44:16;11.90;99.90
14409;DHT22;7289;50.706;4.992;2024-02-04T15:46:48;11.90;99.90
14409;DHT22;7289;50.706;4.992;2024-02-04T15:49:21;11.90;99.90
14409;DHT22;7289;50.706;4.992;2024-02-04T15:51:51;11.80;99.90
14409;DHT22;7289;50.706;4.992;2024-02-04T15:54:21;11.80;99.90
14409;DHT22;7289;50.706;4.992;2024-02-04T15:56:55;11.80;99.90
14409;DHT22;7289;50.706;4.992;2024-02-04T15:59:33;11.90;99.90
14409;DHT22;7289;50.706;4.992;2024-02-04T16:02:05;11.90;99.90
14409;DHT22;7289;50.706;4.992;2024-02-04T16:04:37;11.80;99.90